Time;durP1;ratioP1;P1;durP2;ratioP2;P2;SDS_P1;SDS_P2;PMS_P1;PMS_P2;Temp;Humidity;BMP_temperature;BMP_pressure;BME280_temperature;BME280_humidity;BME280_pressure;Samples;Min_cycle;Max_cycle;Signal;HPM_P1;HPM_P2
2022/07/27 00:00:48;;;;;;;2.33;1.15;;;;;;;14.83;72.40;101132.59;5036036;28;20065;-78
2022/07/27 00:03:14;;;;;;;2.72;1.15;;;;;;;14.81;72.63;101131.91;5048356;28;20494;-78
2022/07/27 00:05:40;;;;;;;1.38;1.10;;;;;;;14.78;73.03;101120.72;5052611;28;20041;-78
2022/07/27 00:08:06;;;;;;;3.83;1.35;;;;;;;14.80;73.21;101124.91;5050529;28;20040;-78
2022/07/27 00:10:34;;;;;;;1.60;1.00;;;;;;;14.80;73.34;101116.09;5047743;28;21020;-83
2022/07/27 00:12:59;;;;;;;3.38;1.40;;;;;;;14.79;73.61;101117.06;5052582;28;20032;-84
2022/07/27 00:15:25;;;;;;;4.38;1.42;;;;;;;14.75;73.82;101113.84;5049563;28;20068;-84
2022/07/27 00:17:52;;;;;;;3.58;0.98;;;;;;;14.73;74.03;101115.88;5075959;28;20045;-83
2022/07/27 00:20:18;;;;;;;2.45;1.10;;;;;;;14.71;74.37;101112.50;5056661;28;20028;-79
2022/07/27 00:22:44;;;;;;;1.77;1.42;;;;;;;14.68;74.58;101110.16;5051925;28;20119;-78
2022/07/27 00:25:09;;;;;;;3.45;1.40;;;;;;;14.66;74.55;101107.66;5044390;28;20402;-78
2022/07/27 00:27:35;;;;;;;2.17;1.25;;;;;;;14.59;74.93;101106.59;5053604;28;20065;-84
2022/07/27 00:30:01;;;;;;;3.40;1.20;;;;;;;14.54;75.13;101093.75;5052940;28;20032;-83
2022/07/27 00:32:27;;;;;;;5.57;1.52;;;;;;;14.55;75.17;101097.25;5052251;28;20044;-84
2022/07/27 00:34:53;;;;;;;4.10;1.80;;;;;;;14.55;75.25;101094.59;5050323;28;20052;-84
2022/07/27 00:37:19;;;;;;;2.47;1.27;;;;;;;14.58;75.26;101084.50;5055467;28;20029;-83
2022/07/27 00:39:44;;;;;;;4.07;1.70;;;;;;;14.63;75.48;101084.03;5051582;28;20080;-84
2022/07/27 00:42:10;;;;;;;2.08;1.38;;;;;;;14.61;75.16;101080.69;5052622;28;20029;-84
2022/07/27 00:44:36;;;;;;;4.30;2.28;;;;;;;14.59;75.77;101083.50;5050803;28;20041;-83
2022/07/27 00:47:02;;;;;;;5.82;1.77;;;;;;;14.60;75.52;101079.00;5051569;28;20032;-84
2022/07/27 00:49:28;;;;;;;5.35;1.90;;;;;;;14.59;75.59;101078.16;5050830;28;20485;-84
2022/07/27 00:51:54;;;;;;;2.95;1.85;;;;;;;14.56;75.71;101073.16;5049979;28;20059;-83
2022/07/27 00:54:22;;;;;;;2.58;1.42;;;;;;;14.61;75.75;101070.03;5051103;28;20049;-84
2022/07/27 00:56:48;;;;;;;12.18;1.98;;;;;;;14.60;75.78;101073.69;5047614;28;20036;-83
2022/07/27 00:59:14;;;;;;;4.38;2.40;;;;;;;14.57;75.72;101068.69;5049547;28;20071;-83
2022/07/27 01:01:41;;;;;;;7.72;2.13;;;;;;;14.57;76.03;101072.16;5050429;28;20099;-83
2022/07/27 01:04:07;;;;;;;5.82;2.42;;;;;;;14.56;76.07;101074.97;5050999;28;20115;-83
2022/07/27 01:06:33;;;;;;;4.47;2.05;;;;;;;14.55;76.29;101068.00;5051824;28;20501;-84
2022/07/27 01:11:46;;;;;;;4.90;2.10;;;;;;;14.54;76.40;101072.47;5033473;28;20063;-84
2022/07/27 01:14:14;;;;;;;6.03;2.15;;;;;;;14.55;76.32;101073.31;5054172;28;20079;-83
2022/07/27 01:16:40;;;;;;;6.93;1.85;;;;;;;14.52;76.36;101066.50;5050405;28;20037;-83
2022/07/27 01:19:09;;;;;;;5.95;2.35;;;;;;;14.52;76.33;101064.66;5046316;28;20041;-84
2022/07/27 01:21:35;;;;;;;4.72;2.78;;;;;;;14.53;76.43;101062.84;5042682;28;20041;-83
2022/07/27 01:24:03;;;;;;;4.05;1.95;;;;;;;14.55;76.44;101073.31;5049126;28;20398;-84
2022/07/27 01:26:29;;;;;;;5.47;2.53;;;;;;;14.56;76.46;101069.66;5067391;28;20099;-83
2022/07/27 01:29:00;;;;;;;8.80;2.90;;;;;;;14.52;76.44;101069.97;5047329;28;20418;-83
2022/07/27 01:31:27;;;;;;;8.55;2.40;;;;;;;14.51;76.58;101062.16;5050219;28;20033;-83
2022/07/27 01:33:53;;;;;;;5.47;1.90;;;;;;;14.50;76.76;101071.13;5051524;28;20494;-83
2022/07/27 01:36:19;;;;;;;5.30;2.47;;;;;;;14.50;77.09;101061.31;5050185;28;20481;-83
2022/07/27 01:38:45;;;;;;;4.45;1.33;;;;;;;14.52;77.09;101058.50;5051267;28;20075;-83
2022/07/27 01:41:11;;;;;;;5.88;1.48;;;;;;;14.55;77.15;101060.88;5065116;28;20116;-83
2022/07/27 01:43:38;;;;;;;3.58;1.40;;;;;;;14.56;77.13;101053.69;5048431;28;20029;-83
2022/07/27 01:46:04;;;;;;;2.42;1.05;;;;;;;14.55;77.06;101052.88;5052385;28;20029;-83
2022/07/27 01:48:29;;;;;;;3.13;1.25;;;;;;;14.55;77.54;101049.38;5070567;28;20037;-84
2022/07/27 01:50:55;;;;;;;1.95;0.90;;;;;;;14.56;77.38;101056.34;5052342;28;20584;-84
2022/07/27 01:53:23;;;;;;;2.33;0.85;;;;;;;14.57;77.45;101058.84;5045644;28;20111;-83
2022/07/27 01:55:50;;;;;;;2.13;1.00;;;;;;;14.54;77.42;101047.72;5042849;28;20026;-83
2022/07/27 01:58:16;;;;;;;4.28;1.30;;;;;;;14.52;77.63;101056.66;5052197;28;20103;-83
2022/07/27 02:00:42;;;;;;;2.13;0.98;;;;;;;14.51;77.58;101044.38;5050654;28;20064;-83
2022/07/27 02:03:10;;;;;;;2.05;0.93;;;;;;;14.50;77.57;101039.19;5043804;28;20029;-83
2022/07/27 02:05:37;;;;;;;4.95;1.02;;;;;;;14.47;77.73;101036.84;5052012;28;20041;-83
2022/07/27 02:08:04;;;;;;;1.50;0.88;;;;;;;14.48;77.74;101038.50;5046984;28;20021;-83
2022/07/27 02:10:31;;;;;;;1.55;0.80;;;;;;;14.48;77.92;101034.03;5052330;28;20033;-83
2022/07/27 02:12:57;;;;;;;2.25;0.80;;;;;;;14.49;78.01;101040.19;5050449;28;20033;-83
2022/07/27 02:15:25;;;;;;;2.65;0.90;;;;;;;14.48;78.03;101035.84;5052265;28;20040;-83
2022/07/27 02:17:53;;;;;;;0.82;0.75;;;;;;;14.42;78.23;101042.66;5051481;28;20044;-83
2022/07/27 02:20:21;;;;;;;1.00;0.65;;;;;;;14.38;78.46;101041.28;5049746;28;20052;-83
2022/07/27 02:22:48;;;;;;;2.40;1.08;;;;;;;14.38;78.76;101041.28;5068081;28;20074;-83
2022/07/27 02:25:15;;;;;;;1.13;0.57;;;;;;;14.36;78.60;101040.59;5054401;28;20025;-83
2022/07/27 02:27:42;;;;;;;2.38;0.75;;;;;;;14.35;79.03;101042.41;5045560;28;20072;-83
2022/07/27 02:30:10;;;;;;;1.00;0.70;;;;;;;14.36;78.75;101040.59;5050327;28;20082;-83
2022/07/27 02:32:35;;;;;;;4.90;0.95;;;;;;;14.36;78.66;101038.78;5055129;28;20508;-83
2022/07/27 02:35:02;;;;;;;1.92;0.80;;;;;;;14.38;78.55;101035.97;5054885;28;20052;-84
2022/07/27 02:37:28;;;;;;;0.95;0.88;;;;;;;14.38;78.58;101035.97;5052671;28;20475;-83
2022/07/27 02:39:53;;;;;;;2.22;0.80;;;;;;;14.42;78.54;101032.00;5054495;28;20125;-84
2022/07/27 02:42:19;;;;;;;0.82;0.70;;;;;;;14.46;78.42;101033.34;5046633;28;20500;-84
2022/07/27 02:44:45;;;;;;;2.50;0.82;;;;;;;14.47;78.26;101020.91;5049421;28;20028;-83
2022/07/27 02:47:11;;;;;;;1.58;0.70;;;;;;;14.47;78.29;101036.84;5027590;28;20037;-84
2022/07/27 02:49:37;;;;;;;4.30;0.90;;;;;;;14.45;78.31;101022.88;5053610;28;20040;-83
2022/07/27 02:52:05;;;;;;;4.57;1.38;;;;;;;14.41;78.34;101030.34;5050168;28;20033;-83
2022/07/27 02:54:31;;;;;;;6.28;1.17;;;;;;;14.37;78.51;101027.16;5053039;28;20064;-83
2022/07/27 02:57:03;;;;;;;1.77;0.95;;;;;;;14.33;78.85;101024.97;5054483;28;20021;-83
2022/07/27 02:59:29;;;;;;;3.20;0.90;;;;;;;14.31;78.84;101024.28;5051980;28;20048;-83
2022/07/27 03:01:55;;;;;;;1.77;0.98;;;;;;;14.30;78.97;101023.44;5053406;28;20076;-84
2022/07/27 03:04:21;;;;;;;2.70;1.00;;;;;;;14.31;79.06;101025.13;5051648;28;20033;-83
2022/07/27 03:06:47;;;;;;;2.03;0.80;;;;;;;14.27;79.04;101027.25;5082018;28;20041;-83
2022/07/27 03:09:13;;;;;;;3.90;0.85;;;;;;;14.22;79.29;101018.88;5051832;28;20041;-83
2022/07/27 03:11:39;;;;;;;0.73;0.70;;;;;;;14.19;79.61;101013.88;5047442;28;20087;-83
2022/07/27 03:14:05;;;;;;;5.72;0.82;;;;;;;14.14;79.70;101011.69;5048398;28;20132;-83
2022/07/27 03:16:31;;;;;;;2.63;1.00;;;;;;;14.15;80.02;101009.88;5051373;28;20044;-83
2022/07/27 03:18:57;;;;;;;4.50;1.30;;;;;;;14.09;80.09;101006.00;5053692;28;20044;-84
2022/07/27 03:21:24;;;;;;;3.38;1.63;;;;;;;14.04;80.51;101008.28;5052300;28;20051;-83
2022/07/27 03:23:49;;;;;;;3.65;1.33;;;;;;;13.99;80.72;100998.13;5053680;28;20087;-84
2022/07/27 03:26:17;;;;;;;2.65;1.52;;;;;;;13.94;81.15;100999.53;5057047;28;20037;-83
2022/07/27 03:28:43;;;;;;;4.07;1.23;;;;;;;13.92;81.56;100993.56;5052042;28;20539;-83
2022/07/27 03:31:09;;;;;;;7.18;1.80;;;;;;;13.86;81.70;100993.19;5054150;28;20028;-83
2022/07/27 03:33:35;;;;;;;2.13;1.27;;;;;;;13.89;81.68;101000.84;5052852;28;20060;-84
2022/07/27 03:36:02;;;;;;;8.05;1.75;;;;;;;13.93;81.75;100997.88;5062396;28;20044;-83
2022/07/27 03:38:28;;;;;;;2.13;1.15;;;;;;;13.96;81.66;100995.78;5048696;28;20112;-83
2022/07/27 03:40:54;;;;;;;2.13;1.10;;;;;;;13.98;81.73;100998.28;5053987;28;20544;-84
2022/07/27 03:43:20;;;;;;;4.10;1.70;;;;;;;13.99;81.54;100990.16;5053050;28;20033;-83
2022/07/27 03:45:46;;;;;;;3.92;1.10;;;;;;;14.02;81.60;100991.66;5046832;28;20485;-84
2022/07/27 03:48:12;;;;;;;3.83;1.30;;;;;;;14.02;81.69;100989.00;5048469;28;20087;-84
2022/07/27 03:50:38;;;;;;;3.95;1.40;;;;;;;14.05;81.51;100990.53;5044794;28;20078;-83
2022/07/27 03:53:03;;;;;;;3.13;1.30;;;;;;;14.04;81.40;100988.84;5049708;28;20548;-84
2022/07/27 03:55:29;;;;;;;2.35;1.10;;;;;;;14.06;81.63;100984.22;5052672;28;20075;-84
2022/07/27 03:57:55;;;;;;;3.88;1.55;;;;;;;14.06;81.64;100986.88;5052573;28;20453;-83
2022/07/27 04:00:21;;;;;;;4.00;1.42;;;;;;;14.07;81.64;100978.75;5082008;28;20124;-84
2022/07/27 04:02:48;;;;;;;2.30;1.25;;;;;;;14.09;81.57;100973.28;5051940;28;20033;-83
2022/07/27 04:05:13;;;;;;;3.08;1.35;;;;;;;14.10;81.36;100978.44;5052242;28;20064;-83
2022/07/27 04:07:40;;;;;;;3.47;1.52;;;;;;;14.10;81.31;100975.78;5051519;28;20308;-84
2022/07/27 04:10:07;;;;;;;3.17;1.40;;;;;;;14.09;81.56;100970.63;5052267;28;20029;-84
2022/07/27 04:12:35;;;;;;;3.53;1.38;;;;;;;14.08;81.63;100976.94;5048898;28;20119;-84
2022/07/27 04:15:01;;;;;;;5.10;1.50;;;;;;;14.08;81.69;100979.59;5053940;28;20067;-84
2022/07/27 04:17:27;;;;;;;1.70;1.08;;;;;;;14.04;81.66;100981.72;5051490;28;20072;-83
2022/07/27 04:19:52;;;;;;;5.22;2.00;;;;;;;14.00;81.88;100980.31;5049022;28;20041;-84
2022/07/27 04:22:18;;;;;;;4.63;1.50;;;;;;;14.02;81.94;100978.34;5051201;28;20029;-78
2022/07/27 04:24:44;;;;;;;5.18;1.35;;;;;;;14.01;81.94;100969.53;5052126;28;20033;-78
2022/07/27 04:27:10;;;;;;;2.13;1.45;;;;;;;14.05;81.88;100974.56;5076468;28;20033;-83
2022/07/27 04:29:35;;;;;;;6.20;1.73;;;;;;;14.08;81.70;100984.91;5048111;28;20037;-84
2022/07/27 04:32:01;;;;;;;2.97;1.00;;;;;;;14.07;81.56;100977.91;5070538;28;20029;-83
2022/07/27 04:34:27;;;;;;;1.55;0.90;;;;;;;14.07;81.57;100975.25;5047595;28;20045;-83
2022/07/27 04:36:53;;;;;;;6.05;0.93;;;;;;;14.06;81.64;100974.44;5052456;28;20474;-84
2022/07/27 04:39:19;;;;;;;5.88;1.00;;;;;;;14.07;81.54;100977.91;5050963;28;20089;-84
2022/07/27 04:41:45;;;;;;;3.90;0.93;;;;;;;14.09;81.56;100979.44;5046693;28;20405;-83
2022/07/27 04:44:11;;;;;;;4.25;1.05;;;;;;;14.09;81.40;100973.28;5051121;28;20028;-84
2022/07/27 04:46:37;;;;;;;3.53;1.17;;;;;;;14.07;81.49;100970.78;5052422;28;20147;-84
2022/07/27 04:49:03;;;;;;;1.13;0.98;;;;;;;14.08;81.54;100971.63;5052321;28;20489;-83
2022/07/27 04:51:29;;;;;;;4.13;1.17;;;;;;;14.08;81.87;100968.97;5043407;28;20087;-83
2022/07/27 04:53:55;;;;;;;1.48;0.80;;;;;;;14.07;81.57;100967.25;5053825;28;20029;-83
2022/07/27 04:56:20;;;;;;;4.40;1.20;;;;;;;14.02;81.78;100968.56;5048460;28;20064;-78
2022/07/27 04:58:46;;;;;;;0.85;0.85;;;;;;;13.99;82.00;100976.84;5053241;28;20029;-77
2022/07/27 05:01:12;;;;;;;2.00;1.00;;;;;;;13.99;82.02;100966.22;5051163;28;20427;-83
2022/07/27 05:03:39;;;;;;;7.93;2.22;;;;;;;13.99;82.19;100976.84;5042978;28;20032;-83
2022/07/27 05:06:06;;;;;;;2.55;1.02;;;;;;;13.98;82.04;100971.69;5032072;28;20421;-83
2022/07/27 05:08:32;;;;;;;1.48;1.25;;;;;;;13.98;81.82;100977.00;5051454;28;20056;-83
2022/07/27 05:10:58;;;;;;;1.45;0.93;;;;;;;13.95;81.96;100975.47;5051993;28;20444;-83
2022/07/27 05:13:23;;;;;;;1.92;1.08;;;;;;;13.92;82.20;100970.47;5026580;28;20030;-83
2022/07/27 05:15:49;;;;;;;4.32;1.25;;;;;;;13.88;82.48;100974.44;5050976;28;20100;-83
2022/07/27 05:18:15;;;;;;;2.45;1.17;;;;;;;13.88;82.50;100975.28;5051462;28;20059;-83
2022/07/27 05:20:41;;;;;;;4.20;1.23;;;;;;;13.90;82.78;100977.78;5052444;28;20452;-83
2022/07/27 05:23:07;;;;;;;4.68;1.02;;;;;;;13.91;82.70;100975.94;5043093;28;20063;-83
2022/07/27 05:25:33;;;;;;;2.63;1.20;;;;;;;13.93;82.79;100980.13;5053005;28;20072;-83
2022/07/27 05:27:58;;;;;;;3.75;1.50;;;;;;;13.94;82.73;100976.47;5067340;28;20029;-83
2022/07/27 05:30:24;;;;;;;2.80;1.45;;;;;;;13.96;82.43;100973.66;5051628;28;20413;-83
2022/07/27 05:32:51;;;;;;;3.58;1.30;;;;;;;13.99;82.89;100979.50;5050573;28;20037;-84
2022/07/27 05:35:17;;;;;;;2.67;1.42;;;;;;;14.00;82.43;100965.22;5080481;28;20044;-83
2022/07/27 05:37:43;;;;;;;4.00;1.52;;;;;;;14.02;82.42;100978.34;5046133;28;20032;-84
2022/07/27 05:40:10;;;;;;;2.55;1.25;;;;;;;14.03;82.53;100969.38;5049665;28;20040;-84
2022/07/27 05:42:36;;;;;;;2.78;1.23;;;;;;;14.02;82.31;100970.38;5051388;28;20079;-83
2022/07/27 05:45:02;;;;;;;3.67;1.30;;;;;;;13.99;82.81;100978.66;5047557;28;20500;-83
2022/07/27 05:47:27;;;;;;;3.00;1.60;;;;;;;13.98;82.62;100980.47;5049776;28;20500;-83
2022/07/27 05:49:53;;;;;;;8.65;1.70;;;;;;;13.93;82.90;100971.31;5065505;28;20032;-84
2022/07/27 05:52:19;;;;;;;7.13;2.13;;;;;;;13.88;83.38;100977.09;5048999;28;20102;-84
2022/07/27 05:54:46;;;;;;;5.20;1.73;;;;;;;13.90;83.58;100975.13;5051036;28;20393;-83
2022/07/27 05:57:14;;;;;;;6.95;2.58;;;;;;;13.93;83.45;100973.97;5047293;28;20080;-84
2022/07/27 05:59:40;;;;;;;4.70;2.30;;;;;;;13.95;83.47;100970.16;5029563;28;20456;-83
2022/07/27 06:02:07;;;;;;;6.32;2.22;;;;;;;13.96;83.41;100963.88;5049600;28;20033;-83
2022/07/27 06:04:34;;;;;;;6.03;2.17;;;;;;;13.92;83.58;100962.50;5050689;28;20091;-82
2022/07/27 06:09:44;;;;;;;8.18;2.00;;;;;;;13.94;83.99;100957.03;5049227;28;20033;-84
2022/07/27 06:12:11;;;;;;;3.20;1.60;;;;;;;13.95;83.85;100964.84;5047852;28;20029;-83
2022/07/27 06:14:37;;;;;;;2.92;1.60;;;;;;;13.95;83.83;100953.41;5049485;28;20114;-83
2022/07/27 06:17:04;;;;;;;2.58;1.92;;;;;;;13.93;83.87;100950.06;5080332;28;20033;-83
2022/07/27 06:19:30;;;;;;;4.05;1.90;;;;;;;13.89;84.36;100960.16;5050493;28;20090;-83
2022/07/27 06:21:56;;;;;;;8.80;2.13;;;;;;;13.81;84.58;100962.75;5048942;28;20512;-83
2022/07/27 06:24:22;;;;;;;5.32;1.98;;;;;;;13.77;85.09;100962.22;5075473;28;20389;-83
2022/07/27 06:26:48;;;;;;;4.03;2.30;;;;;;;13.74;85.15;100958.03;5050996;28;20037;-83
2022/07/27 06:29:14;;;;;;;6.38;1.70;;;;;;;13.75;85.58;100962.38;5050147;28;20033;-83
2022/07/27 06:31:40;;;;;;;3.55;1.63;;;;;;;13.79;85.61;100956.75;5060090;28;20127;-83
2022/07/27 06:34:06;;;;;;;5.00;1.85;;;;;;;13.76;85.57;100955.25;5044271;28;20401;-83
2022/07/27 06:36:31;;;;;;;4.15;1.80;;;;;;;13.77;85.84;100949.78;5051740;28;20029;-83
2022/07/27 06:38:57;;;;;;;4.32;1.60;;;;;;;13.82;85.84;100949.31;5050609;28;20041;-83
2022/07/27 06:41:24;;;;;;;5.13;2.20;;;;;;;13.86;85.73;100952.47;5031700;28;20060;-83
2022/07/27 06:43:49;;;;;;;5.93;2.17;;;;;;;13.89;85.76;100954.84;5043130;28;20023;-83
2022/07/27 06:46:15;;;;;;;3.38;1.95;;;;;;;13.92;86.02;100951.88;5045994;28;20025;-78
2022/07/27 06:48:41;;;;;;;2.63;1.48;;;;;;;13.98;86.06;100945.94;5048331;28;20056;-77
2022/07/27 06:51:07;;;;;;;3.50;1.48;;;;;;;14.06;86.01;100947.84;5065948;28;20487;-83
2022/07/27 06:53:33;;;;;;;4.15;1.88;;;;;;;14.15;85.72;100943.41;5042421;28;20087;-83
2022/07/27 06:56:02;;;;;;;5.03;2.00;;;;;;;14.21;85.38;100947.25;5046812;28;20041;-83
2022/07/27 06:58:32;;;;;;;3.47;1.70;;;;;;;14.27;85.00;100950.13;5049685;28;20032;-83
2022/07/27 07:01:01;;;;;;;3.55;1.60;;;;;;;14.32;85.16;100952.31;5043502;28;20065;-83
2022/07/27 07:03:28;;;;;;;6.50;2.03;;;;;;;14.34;84.48;100945.03;5046173;28;20475;-83
2022/07/27 07:05:53;;;;;;;3.53;1.65;;;;;;;14.45;84.16;100949.25;5054205;28;20087;-83
2022/07/27 07:08:21;;;;;;;4.03;1.77;;;;;;;14.48;83.86;100954.25;5036512;28;20473;-83
2022/07/27 07:10:49;;;;;;;5.40;1.80;;;;;;;14.47;83.45;100949.09;5049348;28;20025;-83
2022/07/27 07:13:15;;;;;;;5.05;2.20;;;;;;;14.47;83.17;100951.75;5052469;28;20039;-83
2022/07/27 07:15:42;;;;;;;7.20;2.95;;;;;;;14.46;82.86;100952.75;5053851;28;20033;-83
2022/07/27 07:18:09;;;;;;;8.77;2.50;;;;;;;14.45;82.88;100953.72;5084111;28;20032;-83
2022/07/27 07:20:36;;;;;;;2.25;1.40;;;;;;;14.39;82.61;100955.19;5053767;28;20029;-83
2022/07/27 07:23:03;;;;;;;2.97;1.45;;;;;;;14.37;82.71;100947.38;5047515;28;20029;-83
2022/07/27 07:25:29;;;;;;;5.18;1.58;;;;;;;14.39;82.17;100952.53;5049818;28;20565;-83
2022/07/27 07:27:55;;;;;;;2.53;1.73;;;;;;;14.40;81.94;100946.22;5053535;28;20036;-83
2022/07/27 07:30:22;;;;;;;2.58;1.50;;;;;;;14.44;81.73;100949.41;5049230;28;20033;-83
2022/07/27 07:32:48;;;;;;;2.40;1.10;;;;;;;14.47;81.73;100941.94;5053147;28;20025;-83
2022/07/27 07:35:14;;;;;;;2.70;1.50;;;;;;;14.48;81.63;100948.94;5050016;28;20098;-83
2022/07/27 07:37:40;;;;;;;4.38;1.30;;;;;;;14.49;81.62;100947.91;5068905;28;20486;-83
2022/07/27 07:40:09;;;;;;;4.28;1.40;;;;;;;14.50;81.62;100943.44;5035518;28;20043;-83
2022/07/27 07:42:52;;;;;;;3.53;1.27;;;;;;;14.40;81.77;100948.88;5053419;28;20032;-83
2022/07/27 07:45:19;;;;;;;3.45;1.63;;;;;;;14.32;82.36;100949.66;5054224;28;20032;-83
2022/07/27 07:47:46;;;;;;;2.58;1.25;;;;;;;14.26;82.66;100950.28;5052747;28;20036;-83
2022/07/27 07:50:12;;;;;;;1.83;1.20;;;;;;;14.26;82.82;100948.47;5067946;28;20097;-83
2022/07/27 07:52:38;;;;;;;5.97;1.33;;;;;;;14.35;82.76;100946.69;5051436;28;20037;-83
2022/07/27 07:55:04;;;;;;;4.70;2.00;;;;;;;14.44;82.48;100947.59;5051904;28;20044;-83
2022/07/27 07:57:30;;;;;;;3.13;1.33;;;;;;;14.47;82.31;100947.28;5059363;28;20107;-83
2022/07/27 07:59:56;;;;;;;5.10;1.70;;;;;;;14.51;82.18;100945.09;5053240;28;20112;-83
2022/07/27 08:02:22;;;;;;;1.35;1.25;;;;;;;14.53;82.07;100940.47;5054473;28;20163;-83
2022/07/27 08:04:47;;;;;;;4.22;1.55;;;;;;;14.59;81.64;100946.97;5053778;28;20536;-83
2022/07/27 08:07:13;;;;;;;2.15;1.50;;;;;;;14.64;81.51;100944.69;5053854;28;20075;-82
2022/07/27 08:09:39;;;;;;;4.40;1.10;;;;;;;14.68;81.18;100945.19;5053314;28;20068;-83
2022/07/27 08:12:05;;;;;;;1.63;1.05;;;;;;;14.67;80.66;100946.22;5053067;28;20462;-83
2022/07/27 08:14:32;;;;;;;5.70;1.48;;;;;;;14.73;80.11;100941.06;5053998;28;20036;-83
2022/07/27 08:16:58;;;;;;;2.30;1.02;;;;;;;14.86;79.96;100953.13;5053029;28;20460;-83
2022/07/27 08:19:24;;;;;;;2.25;0.70;;;;;;;14.94;79.41;100950.50;5050258;28;20113;-82
2022/07/27 08:21:50;;;;;;;2.30;0.80;;;;;;;15.03;79.06;100945.19;5050168;28;20029;-83
2022/07/27 08:24:15;;;;;;;3.03;0.85;;;;;;;15.11;78.53;100946.03;5067594;28;20072;-83
2022/07/27 08:26:41;;;;;;;2.40;1.10;;;;;;;15.18;78.13;100946.25;5055528;28;20036;-77
2022/07/27 08:29:07;;;;;;;5.63;1.23;;;;;;;15.24;77.84;100947.44;5050585;28;20032;-77
2022/07/27 08:31:33;;;;;;;2.45;1.00;;;;;;;15.25;77.50;100947.28;5066789;28;20127;-83
2022/07/27 08:33:59;;;;;;;3.85;1.20;;;;;;;15.31;77.08;100952.91;5052634;28;20125;-83
2022/07/27 08:36:25;;;;;;;1.45;0.90;;;;;;;15.36;76.62;100948.78;5055950;28;20044;-83
2022/07/27 08:38:51;;;;;;;3.90;1.40;;;;;;;15.40;76.43;100940.47;5050791;28;20020;-83
2022/07/27 08:41:20;;;;;;;3.53;1.33;;;;;;;15.43;76.13;100943.63;5052682;28;20087;-83
2022/07/27 08:43:47;;;;;;;2.92;1.23;;;;;;;15.48;76.15;100951.97;5051219;28;20036;-83
2022/07/27 08:46:17;;;;;;;3.38;1.92;;;;;;;15.59;75.88;100952.66;5047600;28;20048;-83
2022/07/27 08:48:43;;;;;;;5.25;1.27;;;;;;;15.62;75.85;100952.31;5048921;28;20032;-83
2022/07/27 08:51:10;;;;;;;3.35;1.25;;;;;;;15.71;75.79;100947.81;5033401;28;20472;-83
2022/07/27 08:53:36;;;;;;;4.90;1.42;;;;;;;15.78;75.44;100951.50;5045428;28;20051;-83
2022/07/27 08:56:02;;;;;;;2.80;0.98;;;;;;;15.86;75.28;100950.66;5051111;28;20024;-83
2022/07/27 08:58:28;;;;;;;4.20;0.90;;;;;;;15.94;75.04;100949.81;5050757;28;20021;-83
2022/07/27 09:00:55;;;;;;;2.88;0.70;;;;;;;15.93;74.54;100948.97;5033377;28;20090;-82
2022/07/27 09:03:22;;;;;;;3.50;0.77;;;;;;;15.97;74.50;100949.50;5047757;28;20037;-83
2022/07/27 09:05:54;;;;;;;6.28;1.40;;;;;;;15.92;74.17;100947.34;5051958;28;20120;-83
2022/07/27 09:08:26;;;;;;;2.22;0.82;;;;;;;15.87;74.44;100947.84;5062856;28;20063;-82
2022/07/27 09:10:55;;;;;;;5.00;1.15;;;;;;;15.91;74.69;100952.81;5045780;28;20040;-83
2022/07/27 09:13:25;;;;;;;3.13;0.85;;;;;;;15.94;74.64;100950.63;5051709;28;20101;-82
2022/07/27 09:16:02;;;;;;;6.75;1.05;;;;;;;15.98;74.95;100951.19;5050058;28;20055;-83
2022/07/27 09:18:30;;;;;;;5.50;0.98;;;;;;;16.04;74.49;100947.84;5050592;28;20025;-82
2022/07/27 09:21:18;;;;;;;1.67;0.90;;;;;;;16.07;73.66;100947.50;5032472;28;20386;-82
2022/07/27 09:23:49;;;;;;;1.73;0.60;;;;;;;16.19;73.68;100948.00;5047244;28;20037;-83
2022/07/27 09:26:27;;;;;;;2.47;0.80;;;;;;;16.28;73.18;100943.47;5016499;28;20064;-83
2022/07/27 09:28:57;;;;;;;1.20;0.70;;;;;;;16.28;72.80;100951.47;5051091;28;20029;-82
2022/07/27 09:31:23;;;;;;;1.95;0.88;;;;;;;16.24;72.63;100950.97;5065326;28;20040;-82
2022/07/27 09:33:54;;;;;;;3.10;0.93;;;;;;;16.22;72.73;100941.47;5042273;28;20083;-82
2022/07/27 09:36:24;;;;;;;2.58;0.70;;;;;;;16.24;72.46;100942.97;5049590;28;20590;-82
2022/07/27 09:38:54;;;;;;;2.42;0.80;;;;;;;16.28;72.05;100937.28;5046926;28;20120;-82
2022/07/27 09:41:21;;;;;;;3.60;0.90;;;;;;;16.31;71.63;100940.47;5079027;28;20052;-82
2022/07/27 09:43:53;;;;;;;3.60;0.95;;;;;;;16.34;71.29;100945.44;5024663;28;20551;-82
2022/07/27 09:46:31;;;;;;;2.70;0.70;;;;;;;16.40;70.70;100937.78;5043525;28;20024;-82
2022/07/27 09:48:57;;;;;;;3.42;1.15;;;;;;;16.36;70.72;100932.78;5047968;28;20531;-82
2022/07/27 09:51:24;;;;;;;4.15;0.77;;;;;;;16.39;71.03;100936.94;5031808;28;20443;-82
2022/07/27 09:53:51;;;;;;;2.08;0.70;;;;;;;16.39;70.38;100934.28;5052910;28;20112;-82
2022/07/27 09:56:25;;;;;;;0.80;0.80;;;;;;;16.41;69.40;100928.75;5045200;28;20033;-82
2022/07/27 09:58:55;;;;;;;2.40;0.80;;;;;;;16.45;69.36;100932.78;5049061;28;20473;-82
2022/07/27 10:01:33;;;;;;;4.18;1.30;;;;;;;16.41;68.61;100926.94;5048276;28;20052;-81
2022/07/27 10:04:02;;;;;;;2.63;0.98;;;;;;;16.44;68.89;100931.94;5051016;28;20029;-82
2022/07/27 10:06:29;;;;;;;4.28;0.95;;;;;;;16.47;68.79;100933.41;5013445;28;20037;-82
2022/07/27 10:08:56;;;;;;;1.27;0.70;;;;;;;16.47;68.46;100926.25;5055739;28;20036;-82
2022/07/27 10:11:23;;;;;;;2.03;0.95;;;;;;;16.46;68.57;100931.75;5050135;28;20032;-82
2022/07/27 10:13:50;;;;;;;3.25;0.73;;;;;;;16.46;68.45;100927.25;5080035;28;20389;-82
2022/07/27 10:16:20;;;;;;;5.15;0.80;;;;;;;16.48;68.08;100927.09;5050224;28;20433;-82
2022/07/27 10:19:04;;;;;;;1.83;0.90;;;;;;;16.49;68.01;100926.91;5049783;28;20036;-82
2022/07/27 10:21:35;;;;;;;3.42;0.90;;;;;;;16.55;68.17;100920.06;5047501;28;20045;-82
2022/07/27 10:24:27;;;;;;;2.60;0.90;;;;;;;16.54;67.34;100906.88;5049074;28;20037;-82
2022/07/27 10:26:54;;;;;;;4.72;0.80;;;;;;;16.59;67.68;100913.38;5031938;28;20398;-78
2022/07/27 10:29:21;;;;;;;1.77;0.85;;;;;;;16.65;67.71;100909.19;5042514;28;20401;-78
2022/07/27 10:31:53;;;;;;;1.95;0.65;;;;;;;16.64;67.62;100912.84;5069963;28;20087;-82
2022/07/27 10:34:39;;;;;;;4.13;0.80;;;;;;;16.49;67.42;100904.72;5045084;28;20041;-82
2022/07/27 10:37:26;;;;;;;4.90;0.93;;;;;;;16.40;67.73;100909.28;5052496;28;20112;-82
2022/07/27 10:40:33;;;;;;;1.90;0.80;;;;;;;16.46;67.90;100905.91;5033650;28;20064;-82
2022/07/27 10:42:42;;;;;;;3.92;0.90;;;;;;;16.47;67.72;100904.91;5052768;28;20556;-82
2022/07/27 10:45:11;;;;;;;1.80;0.80;;;;;;;16.52;67.71;100900.88;5056077;28;20037;-82
2022/07/27 10:47:43;;;;;;;2.42;1.00;;;;;;;16.51;67.50;100899.22;5053254;28;20056;-82
2022/07/27 10:50:15;;;;;;;3.35;0.77;;;;;;;16.53;67.35;100899.88;5054024;28;20028;-82
2022/07/27 10:52:58;;;;;;;4.32;0.90;;;;;;;16.49;67.62;100902.91;5034073;28;20045;-82
2022/07/27 10:55:30;;;;;;;2.53;0.80;;;;;;;16.51;68.01;100896.56;5069055;28;20376;-82
2022/07/27 10:57:56;;;;;;;3.53;0.60;;;;;;;16.53;67.93;100890.03;5053514;28;20102;-82
2022/07/27 11:00:50;;;;;;;3.45;0.85;;;;;;;16.51;66.93;100899.22;5053782;28;20028;-82
2022/07/27 11:03:28;;;;;;;5.25;1.00;;;;;;;16.58;66.66;100900.22;5053289;28;20029;-82
2022/07/27 11:05:58;;;;;;;1.48;0.73;;;;;;;16.65;66.51;100890.50;5058379;28;20087;-77
2022/07/27 11:08:25;;;;;;;4.20;1.02;;;;;;;16.63;66.61;100892.50;5056680;28;20036;-77
2022/07/27 11:10:51;;;;;;;1.85;0.80;;;;;;;16.62;66.33;100888.19;5057654;28;20121;-82
2022/07/27 11:13:21;;;;;;;4.05;1.00;;;;;;;16.67;65.91;100891.16;5063455;28;20028;-82
2022/07/27 11:16:02;;;;;;;5.90;1.02;;;;;;;16.66;65.98;100886.81;5056930;28;20037;-78
2022/07/27 11:18:33;;;;;;;2.78;0.70;;;;;;;16.68;66.13;100882.13;5059827;28;20510;-77
2022/07/27 11:21:16;;;;;;;3.33;1.00;;;;;;;16.69;66.07;100873.13;5056633;28;20037;-82
2022/07/27 11:23:44;;;;;;;2.25;0.70;;;;;;;16.73;66.02;100869.09;5040406;28;20143;-82
2022/07/27 11:26:10;;;;;;;2.78;0.82;;;;;;;16.81;65.53;100878.06;5069793;28;20039;-82
2022/07/27 11:28:37;;;;;;;2.78;0.98;;;;;;;16.88;65.35;100873.72;5056775;28;20465;-82
2022/07/27 11:31:05;;;;;;;2.53;0.70;;;;;;;16.97;65.55;100877.16;5051187;28;20170;-82